sensor_id;sensor_type;location;lat;lon;timestamp;pressure;altitude;pressure_sealevel;temperature;humidity
15880;BME280;61999;51.514;14.614;2023-06-26T00:00:40;100019.00;;;16.16;60.43
15880;BME280;61999;51.514;14.614;2023-06-26T00:03:08;100019.97;;;16.15;60.41
15880;BME280;61999;51.514;14.614;2023-06-26T00:05:40;100013.66;;;16.16;60.06
15880;BME280;61999;51.514;14.614;2023-06-26T00:08:09;100018.16;;;16.16;60.29
15880;BME280;61999;51.514;14.614;2023-06-26T00:10:37;100017.47;;;16.14;60.42
15880;BME280;61999;51.514;14.614;2023-06-26T00:13:05;100014.81;;;16.14;59.79
15880;BME280;61999;51.514;14.614;2023-06-26T00:15:33;100008.66;;;16.13;60.06
15880;BME280;61999;51.514;14.614;2023-06-26T00:18:01;100014.91;;;16.04;61.39
15880;BME280;61999;51.514;14.614;2023-06-26T00:20:30;100015.56;;;15.98;60.75
15880;BME280;61999;51.514;14.614;2023-06-26T00:23:00;100025.69;;;15.94;61.74
15880;BME280;61999;51.514;14.614;2023-06-26T00:25:32;100013.91;;;15.97;60.98
15880;BME280;61999;51.514;14.614;2023-06-26T00:28:00;100019.91;;;15.99;60.33
15880;BME280;61999;51.514;14.614;2023-06-26T00:30:28;100013.59;;;16.00;60.33
15880;BME280;61999;51.514;14.614;2023-06-26T00:32:56;100010.94;;;16.00;60.14
15880;BME280;61999;51.514;14.614;2023-06-26T00:35:24;100017.25;;;15.99;60.73
15880;BME280;61999;51.514;14.614;2023-06-26T00:37:52;100014.59;;;15.99;60.17
15880;BME280;61999;51.514;14.614;2023-06-26T00:40:20;100012.75;;;15.99;60.76
15880;BME280;61999;51.514;14.614;2023-06-26T00:42:50;100011.75;;;16.00;60.76
15880;BME280;61999;51.514;14.614;2023-06-26T00:45:18;100010.94;;;16.00;60.48
15880;BME280;61999;51.514;14.614;2023-06-26T00:47:50;100008.28;;;16.00;60.72
15880;BME280;61999;51.514;14.614;2023-06-26T00:50:18;99996.81;;;15.99;61.02
15880;BME280;61999;51.514;14.614;2023-06-26T00:52:46;100002.94;;;16.00;60.82
15880;BME280;61999;51.514;14.614;2023-06-26T00:55:14;100003.28;;;15.97;60.93
15880;BME280;61999;51.514;14.614;2023-06-26T00:57:42;99997.13;;;15.96;61.17
15880;BME280;61999;51.514;14.614;2023-06-26T01:00:15;99995.97;;;15.99;61.39
15880;BME280;61999;51.514;14.614;2023-06-26T01:02:43;99991.63;;;15.98;61.43
15880;BME280;61999;51.514;14.614;2023-06-26T01:05:12;99998.78;;;15.97;61.65
15880;BME280;61999;51.514;14.614;2023-06-26T01:07:48;99988.97;;;15.98;60.99
15880;BME280;61999;51.514;14.614;2023-06-26T01:10:19;99994.28;;;15.98;61.81
15880;BME280;61999;51.514;14.614;2023-06-26T01:12:47;99984.78;;;15.95;61.60
15880;BME280;61999;51.514;14.614;2023-06-26T01:15:16;99985.66;;;15.96;61.54
15880;BME280;61999;51.514;14.614;2023-06-26T01:17:45;99982.31;;;15.94;61.90
15880;BME280;61999;51.514;14.614;2023-06-26T01:20:14;99982.47;;;15.92;62.12
15880;BME280;61999;51.514;14.614;2023-06-26T01:22:53;99985.97;;;15.93;62.03
15880;BME280;61999;51.514;14.614;2023-06-26T01:25:33;99977.13;;;15.92;62.08
15880;BME280;61999;51.514;14.614;2023-06-26T01:28:08;99975.63;;;15.90;62.25
15880;BME280;61999;51.514;14.614;2023-06-26T01:30:41;99977.31;;;15.91;62.17
15880;BME280;61999;51.514;14.614;2023-06-26T01:33:11;99971.50;;;15.87;61.79
15880;BME280;61999;51.514;14.614;2023-06-26T01:35:40;99975.94;;;15.87;62.14
15880;BME280;61999;51.514;14.614;2023-06-26T01:38:13;99975.94;;;15.87;62.24
15880;BME280;61999;51.514;14.614;2023-06-26T01:40:41;99974.28;;;15.86;61.85
15880;BME280;61999;51.514;14.614;2023-06-26T01:43:19;99970.63;;;15.87;62.23
15880;BME280;61999;51.514;14.614;2023-06-26T01:45:54;99968.16;;;15.85;62.08
15880;BME280;61999;51.514;14.614;2023-06-26T01:48:34;99970.81;;;15.85;62.27
15880;BME280;61999;51.514;14.614;2023-06-26T01:51:08;99968.28;;;15.83;62.36
15880;BME280;61999;51.514;14.614;2023-06-26T01:53:41;99966.47;;;15.58;68.55
15880;BME280;61999;51.514;14.614;2023-06-26T01:56:16;99969.03;;;15.42;67.83
15880;BME280;61999;51.514;14.614;2023-06-26T01:58:48;99958.34;;;15.59;66.05
15880;BME280;61999;51.514;14.614;2023-06-26T02:01:17;99956.88;;;15.65;64.62
15880;BME280;61999;51.514;14.614;2023-06-26T02:03:45;99963.72;;;15.68;64.81
15880;BME280;61999;51.514;14.614;2023-06-26T02:06:13;99956.56;;;15.68;64.09
15880;BME280;61999;51.514;14.614;2023-06-26T02:08:42;99957.91;;;15.72;64.35
15880;BME280;61999;51.514;14.614;2023-06-26T02:11:10;99964.06;;;15.73;64.29
15880;BME280;61999;51.514;14.614;2023-06-26T02:13:38;99955.09;;;15.74;64.16
15880;BME280;61999;51.514;14.614;2023-06-26T02:16:07;99941.94;;;15.72;64.02
15880;BME280;61999;51.514;14.614;2023-06-26T02:18:35;99952.59;;;15.72;64.34
15880;BME280;61999;51.514;14.614;2023-06-26T02:21:03;99949.28;;;15.70;63.80
15880;BME280;61999;51.514;14.614;2023-06-26T02:23:32;99953.91;;;15.68;63.64
15880;BME280;61999;51.514;14.614;2023-06-26T02:26:00;99960.22;;;15.67;63.83
15880;BME280;61999;51.514;14.614;2023-06-26T02:28:28;99954.91;;;15.67;64.15
15880;BME280;61999;51.514;14.614;2023-06-26T02:30:57;99955.88;;;15.66;64.45
15880;BME280;61999;51.514;14.614;2023-06-26T02:33:26;99953.53;;;15.63;64.71
15880;BME280;61999;51.514;14.614;2023-06-26T02:35:54;99959.84;;;15.62;64.14
15880;BME280;61999;51.514;14.614;2023-06-26T02:38:22;99955.50;;;15.61;64.24
15880;BME280;61999;51.514;14.614;2023-06-26T02:40:50;99955.50;;;15.61;63.90
15880;BME280;61999;51.514;14.614;2023-06-26T02:43:18;99960.00;;;15.60;64.28
15880;BME280;61999;51.514;14.614;2023-06-26T02:45:46;99961.16;;;15.58;64.48
15880;BME280;61999;51.514;14.614;2023-06-26T02:48:14;99959.50;;;15.57;63.95
15880;BME280;61999;51.514;14.614;2023-06-26T02:50:43;99953.50;;;15.55;63.99
15880;BME280;61999;51.514;14.614;2023-06-26T02:53:13;99960.81;;;15.53;64.03
15880;BME280;61999;51.514;14.614;2023-06-26T02:55:41;99964.59;;;15.50;64.11
15880;BME280;61999;51.514;14.614;2023-06-26T02:58:09;99954.59;;;15.44;64.64
15880;BME280;61999;51.514;14.614;2023-06-26T03:00:37;99954.06;;;15.40;64.88
15880;BME280;61999;51.514;14.614;2023-06-26T03:03:08;99956.06;;;15.38;64.50
15880;BME280;61999;51.514;14.614;2023-06-26T03:05:36;99964.03;;;15.38;64.50
15880;BME280;61999;51.514;14.614;2023-06-26T03:08:05;99955.19;;;15.38;65.16
15880;BME280;61999;51.514;14.614;2023-06-26T03:10:33;99955.38;;;15.36;64.76
15880;BME280;61999;51.514;14.614;2023-06-26T03:13:01;99956.38;;;15.35;64.82
15880;BME280;61999;51.514;14.614;2023-06-26T03:15:30;99951.06;;;15.35;64.82
15880;BME280;61999;51.514;14.614;2023-06-26T03:17:58;99950.22;;;15.35;65.36
15880;BME280;61999;51.514;14.614;2023-06-26T03:20:26;99944.75;;;15.36;65.05
15880;BME280;61999;51.514;14.614;2023-06-26T03:22:54;99947.41;;;15.36;65.23
15880;BME280;61999;51.514;14.614;2023-06-26T03:25:23;99948.91;;;15.39;65.57
15880;BME280;61999;51.514;14.614;2023-06-26T03:27:51;99939.13;;;15.39;65.81
15880;BME280;61999;51.514;14.614;2023-06-26T03:30:19;99950.44;;;15.42;65.72
15880;BME280;61999;51.514;14.614;2023-06-26T03:32:47;99947.78;;;15.42;65.77
15880;BME280;61999;51.514;14.614;2023-06-26T03:35:15;99948.44;;;15.44;65.94
15880;BME280;61999;51.514;14.614;2023-06-26T03:37:43;99949.28;;;15.44;66.34
15880;BME280;61999;51.514;14.614;2023-06-26T03:40:11;99948.13;;;15.47;66.49
15880;BME280;61999;51.514;14.614;2023-06-26T03:42:42;99950.31;;;15.51;65.84
15880;BME280;61999;51.514;14.614;2023-06-26T03:45:10;99951.16;;;15.52;65.90
15880;BME280;61999;51.514;14.614;2023-06-26T03:47:38;99946.19;;;15.57;66.25
15880;BME280;61999;51.514;14.614;2023-06-26T03:50:07;99953.84;;;15.60;66.20
15880;BME280;61999;51.514;14.614;2023-06-26T03:52:35;99948.22;;;15.63;65.91
15880;BME280;61999;51.514;14.614;2023-06-26T03:55:04;99954.22;;;15.65;66.12
15880;BME280;61999;51.514;14.614;2023-06-26T03:57:32;99951.56;;;15.65;66.26
15880;BME280;61999;51.514;14.614;2023-06-26T04:00:03;99947.59;;;15.69;66.05
15880;BME280;61999;51.514;14.614;2023-06-26T04:02:35;99944.78;;;15.71;66.55
15880;BME280;61999;51.514;14.614;2023-06-26T04:05:03;99944.28;;;15.75;66.51
15880;BME280;61999;51.514;14.614;2023-06-26T04:07:31;99947.47;;;15.79;66.64
15880;BME280;61999;51.514;14.614;2023-06-26T04:09:59;99939.91;;;15.84;66.33
15880;BME280;61999;51.514;14.614;2023-06-26T04:12:27;99943.22;;;15.86;66.04
15880;BME280;61999;51.514;14.614;2023-06-26T04:14:55;99936.59;;;15.90;66.36
15880;BME280;61999;51.514;14.614;2023-06-26T04:17:25;99940.78;;;15.93;66.80
15880;BME280;61999;51.514;14.614;2023-06-26T04:19:52;99941.41;;;15.95;66.33
15880;BME280;61999;51.514;14.614;2023-06-26T04:22:20;99940.13;;;15.99;66.73
15880;BME280;61999;51.514;14.614;2023-06-26T04:24:48;99944.13;;;16.03;66.65
15880;BME280;61999;51.514;14.614;2023-06-26T04:27:17;99946.31;;;16.08;66.76
15880;BME280;61999;51.514;14.614;2023-06-26T04:29:45;99940.66;;;16.11;66.59
15880;BME280;61999;51.514;14.614;2023-06-26T04:32:13;99935.53;;;16.17;66.91
15880;BME280;61999;51.514;14.614;2023-06-26T04:34:42;99927.88;;;16.22;66.40
15880;BME280;61999;51.514;14.614;2023-06-26T04:37:14;99932.88;;;16.25;66.62
15880;BME280;61999;51.514;14.614;2023-06-26T04:39:44;99940.41;;;16.30;66.06
15880;BME280;61999;51.514;14.614;2023-06-26T04:42:12;99924.94;;;16.34;66.68
15880;BME280;61999;51.514;14.614;2023-06-26T04:44:39;99931.56;;;16.38;66.72
15880;BME280;61999;51.514;14.614;2023-06-26T04:47:08;99923.25;;;16.41;66.61
15880;BME280;61999;51.514;14.614;2023-06-26T04:49:36;99918.63;;;16.43;66.28
15880;BME280;61999;51.514;14.614;2023-06-26T04:52:06;99925.28;;;16.47;66.56
15880;BME280;61999;51.514;14.614;2023-06-26T04:54:34;99926.94;;;16.48;66.30
15880;BME280;61999;51.514;14.614;2023-06-26T04:57:02;99923.28;;;16.49;65.94
15880;BME280;61999;51.514;14.614;2023-06-26T04:59:30;99925.13;;;16.48;65.65
15880;BME280;61999;51.514;14.614;2023-06-26T05:01:58;99923.59;;;16.46;66.02
15880;BME280;61999;51.514;14.614;2023-06-26T05:04:26;99920.94;;;16.46;65.67
15880;BME280;61999;51.514;14.614;2023-06-26T05:06:54;99916.63;;;16.45;64.87
15880;BME280;61999;51.514;14.614;2023-06-26T05:09:23;99925.59;;;16.44;64.63
15880;BME280;61999;51.514;14.614;2023-06-26T05:11:52;99913.28;;;16.43;64.92
15880;BME280;61999;51.514;14.614;2023-06-26T05:14:20;99918.63;;;16.43;64.87
15880;BME280;61999;51.514;14.614;2023-06-26T05:16:49;99919.63;;;16.42;64.49
15880;BME280;61999;51.514;14.614;2023-06-26T05:19:17;99920.59;;;16.41;63.80
15880;BME280;61999;51.514;14.614;2023-06-26T05:21:45;99919.78;;;16.40;63.82
15880;BME280;61999;51.514;14.614;2023-06-26T05:24:16;99917.13;;;16.40;63.37
15880;BME280;61999;51.514;14.614;2023-06-26T05:26:46;99914.63;;;16.31;62.92
15880;BME280;61999;51.514;14.614;2023-06-26T05:29:15;99913.25;;;16.26;61.87
15880;BME280;61999;51.514;14.614;2023-06-26T05:31:46;99908.13;;;16.33;62.34
15880;BME280;61999;51.514;14.614;2023-06-26T05:34:17;99917.53;;;16.03;62.07
15880;BME280;61999;51.514;14.614;2023-06-26T05:36:51;99916.88;;;16.09;62.10
15880;BME280;61999;51.514;14.614;2023-06-26T05:39:20;99913.25;;;16.18;61.79
15880;BME280;61999;51.514;14.614;2023-06-26T05:41:50;99915.28;;;16.24;61.58
15880;BME280;61999;51.514;14.614;2023-06-26T05:44:18;99905.78;;;16.22;61.68
15880;BME280;61999;51.514;14.614;2023-06-26T05:46:46;99909.78;;;16.26;61.47
15880;BME280;61999;51.514;14.614;2023-06-26T05:49:14;99914.13;;;16.27;61.82
15880;BME280;61999;51.514;14.614;2023-06-26T05:51:42;99909.63;;;16.27;61.83
15880;BME280;61999;51.514;14.614;2023-06-26T05:54:12;99911.28;;;16.28;61.89
15880;BME280;61999;51.514;14.614;2023-06-26T05:56:41;99906.75;;;16.04;61.77
15880;BME280;61999;51.514;14.614;2023-06-26T05:59:11;99905.25;;;16.10;61.90
15880;BME280;61999;51.514;14.614;2023-06-26T06:01:42;99905.56;;;16.15;61.71
15880;BME280;61999;51.514;14.614;2023-06-26T06:04:10;99904.53;;;16.00;62.19
15880;BME280;61999;51.514;14.614;2023-06-26T06:06:37;99905.44;;;16.17;61.41
15880;BME280;61999;51.514;14.614;2023-06-26T06:09:05;99896.66;;;16.24;61.81
15880;BME280;61999;51.514;14.614;2023-06-26T06:11:33;99907.28;;;16.24;60.91
15880;BME280;61999;51.514;14.614;2023-06-26T06:14:01;99897.44;;;16.17;61.02
15880;BME280;61999;51.514;14.614;2023-06-26T06:16:31;99890.16;;;16.19;60.35
15880;BME280;61999;51.514;14.614;2023-06-26T06:18:59;99902.13;;;15.80;61.44
15880;BME280;61999;51.514;14.614;2023-06-26T06:21:26;99896.28;;;15.77;62.16
15880;BME280;61999;51.514;14.614;2023-06-26T06:23:54;99899.59;;;16.05;61.32
15880;BME280;61999;51.514;14.614;2023-06-26T06:26:22;99903.59;;;15.75;61.83
15880;BME280;61999;51.514;14.614;2023-06-26T06:28:50;99896.97;;;15.45;63.64
15880;BME280;61999;51.514;14.614;2023-06-26T06:31:18;99892.44;;;15.71;61.50
15880;BME280;61999;51.514;14.614;2023-06-26T06:33:48;99887.22;;;15.88;61.56
15880;BME280;61999;51.514;14.614;2023-06-26T06:36:16;99890.97;;;16.19;61.71
15880;BME280;61999;51.514;14.614;2023-06-26T06:38:44;99889.06;;;15.61;61.67
15880;BME280;61999;51.514;14.614;2023-06-26T06:41:12;99876.34;;;15.81;61.31
15880;BME280;61999;51.514;14.614;2023-06-26T06:43:40;99874.84;;;15.70;59.43
15880;BME280;61999;51.514;14.614;2023-06-26T06:46:09;99873.50;;;16.09;59.71
15880;BME280;61999;51.514;14.614;2023-06-26T06:48:36;99875.66;;;16.13;59.66
15880;BME280;61999;51.514;14.614;2023-06-26T06:51:06;99874.03;;;16.28;57.87
15880;BME280;61999;51.514;14.614;2023-06-26T06:53:35;99870.84;;;16.17;59.05
15880;BME280;61999;51.514;14.614;2023-06-26T06:56:04;99870.03;;;16.41;57.61
15880;BME280;61999;51.514;14.614;2023-06-26T06:58:32;99867.69;;;16.29;57.14
15880;BME280;61999;51.514;14.614;2023-06-26T07:01:00;99868.94;;;16.60;57.92
15880;BME280;61999;51.514;14.614;2023-06-26T07:03:30;99861.78;;;16.77;56.89
15880;BME280;61999;51.514;14.614;2023-06-26T07:05:58;99862.78;;;16.51;56.13
15880;BME280;61999;51.514;14.614;2023-06-26T07:08:28;99866.75;;;16.47;55.68
15880;BME280;61999;51.514;14.614;2023-06-26T07:10:56;99863.94;;;15.90;56.55
15880;BME280;61999;51.514;14.614;2023-06-26T07:13:24;99849.72;;;16.07;56.08
15880;BME280;61999;51.514;14.614;2023-06-26T07:15:52;99854.78;;;16.76;56.05
15880;BME280;61999;51.514;14.614;2023-06-26T07:18:20;99858.78;;;16.71;56.12
15880;BME280;61999;51.514;14.614;2023-06-26T07:20:48;99853.09;;;16.58;55.58
15880;BME280;61999;51.514;14.614;2023-06-26T07:23:16;99849.97;;;16.79;54.87
15880;BME280;61999;51.514;14.614;2023-06-26T07:25:45;99849.41;;;16.10;54.83
15880;BME280;61999;51.514;14.614;2023-06-26T07:28:13;99848.09;;;16.31;55.04
15880;BME280;61999;51.514;14.614;2023-06-26T07:30:41;99857.13;;;16.70;55.02
15880;BME280;61999;51.514;14.614;2023-06-26T07:33:09;99849.09;;;17.20;53.66
15880;BME280;61999;51.514;14.614;2023-06-26T07:35:38;99841.91;;;17.20;52.54
15880;BME280;61999;51.514;14.614;2023-06-26T07:38:06;99848.03;;;17.37;52.39
15880;BME280;61999;51.514;14.614;2023-06-26T07:40:34;99840.22;;;17.67;52.10
15880;BME280;61999;51.514;14.614;2023-06-26T07:43:03;99844.78;;;16.86;54.77
15880;BME280;61999;51.514;14.614;2023-06-26T07:45:31;99844.66;;;17.43;51.20
15880;BME280;61999;51.514;14.614;2023-06-26T07:47:59;99847.47;;;17.89;50.71
15880;BME280;61999;51.514;14.614;2023-06-26T07:50:27;99841.47;;;17.56;48.77
15880;BME280;61999;51.514;14.614;2023-06-26T07:52:55;99833.75;;;18.00;50.83
15880;BME280;61999;51.514;14.614;2023-06-26T07:55:23;99845.59;;;17.98;49.31
15880;BME280;61999;51.514;14.614;2023-06-26T07:57:53;99848.19;;;18.37;49.25
15880;BME280;61999;51.514;14.614;2023-06-26T08:00:23;99843.47;;;17.93;47.52
15880;BME280;61999;51.514;14.614;2023-06-26T08:02:52;99844.22;;;18.33;49.54
15880;BME280;61999;51.514;14.614;2023-06-26T08:05:20;99843.56;;;18.31;48.07
15880;BME280;61999;51.514;14.614;2023-06-26T08:07:48;99835.25;;;18.87;49.24
15880;BME280;61999;51.514;14.614;2023-06-26T08:10:16;99835.56;;;19.22;47.14
15880;BME280;61999;51.514;14.614;2023-06-26T08:12:44;99828.66;;;18.60;45.99
15880;BME280;61999;51.514;14.614;2023-06-26T08:15:13;99833.63;;;18.40;46.39
15880;BME280;61999;51.514;14.614;2023-06-26T08:17:42;99826.13;;;18.43;47.49
15880;BME280;61999;51.514;14.614;2023-06-26T08:20:12;99831.44;;;19.19;46.71
15880;BME280;61999;51.514;14.614;2023-06-26T08:22:40;99832.97;;;19.58;44.39
15880;BME280;61999;51.514;14.614;2023-06-26T08:25:10;99824.28;;;19.85;42.70
15880;BME280;61999;51.514;14.614;2023-06-26T08:27:38;99822.38;;;19.50;41.23
15880;BME280;61999;51.514;14.614;2023-06-26T08:30:07;99822.84;;;19.38;40.06
15880;BME280;61999;51.514;14.614;2023-06-26T08:32:39;99821.44;;;20.08;40.18
15880;BME280;61999;51.514;14.614;2023-06-26T08:35:08;99824.78;;;19.96;38.25
15880;BME280;61999;51.514;14.614;2023-06-26T08:37:37;99819.25;;;19.46;38.20
15880;BME280;61999;51.514;14.614;2023-06-26T08:40:06;99819.91;;;19.63;39.13
15880;BME280;61999;51.514;14.614;2023-06-26T08:42:35;99813.06;;;20.18;38.91
15880;BME280;61999;51.514;14.614;2023-06-26T08:45:04;99816.03;;;20.73;39.29
15880;BME280;61999;51.514;14.614;2023-06-26T08:47:35;99809.38;;;21.25;39.62
15880;BME280;61999;51.514;14.614;2023-06-26T08:50:10;99808.47;;;21.11;37.37
15880;BME280;61999;51.514;14.614;2023-06-26T08:52:45;99798.22;;;21.22;34.27
15880;BME280;61999;51.514;14.614;2023-06-26T08:55:23;99801.44;;;21.10;34.52
15880;BME280;61999;51.514;14.614;2023-06-26T08:57:51;99797.47;;;21.89;37.08
15880;BME280;61999;51.514;14.614;2023-06-26T09:00:20;99800.63;;;21.99;34.76
15880;BME280;61999;51.514;14.614;2023-06-26T09:02:48;99806.00;;;21.99;33.20
15880;BME280;61999;51.514;14.614;2023-06-26T09:05:18;99791.97;;;22.64;35.59
15880;BME280;61999;51.514;14.614;2023-06-26T09:07:46;99798.78;;;23.00;35.82
15880;BME280;61999;51.514;14.614;2023-06-26T09:10:14;99797.94;;;22.19;33.91
15880;BME280;61999;51.514;14.614;2023-06-26T09:12:46;99791.56;;;22.47;35.98
15880;BME280;61999;51.514;14.614;2023-06-26T09:15:15;99779.81;;;23.33;34.91
15880;BME280;61999;51.514;14.614;2023-06-26T09:17:43;99786.44;;;23.37;33.35
15880;BME280;61999;51.514;14.614;2023-06-26T09:20:11;99778.03;;;23.65;30.80
15880;BME280;61999;51.514;14.614;2023-06-26T09:22:47;99785.69;;;22.96;32.62
15880;BME280;61999;51.514;14.614;2023-06-26T09:25:16;99791.53;;;22.80;32.83
15880;BME280;61999;51.514;14.614;2023-06-26T09:27:45;99784.91;;;23.03;33.32
15880;BME280;61999;51.514;14.614;2023-06-26T09:30:17;99790.28;;;22.36;30.85
15880;BME280;61999;51.514;14.614;2023-06-26T09:32:45;99778.75;;;22.56;33.24
15880;BME280;61999;51.514;14.614;2023-06-26T09:35:14;99773.38;;;23.85;32.26
15880;BME280;61999;51.514;14.614;2023-06-26T09:37:44;99774.03;;;23.29;31.29
15880;BME280;61999;51.514;14.614;2023-06-26T09:40:14;99779.97;;;22.26;33.18
15880;BME280;61999;51.514;14.614;2023-06-26T09:42:43;99770.69;;;23.40;32.35
15880;BME280;61999;51.514;14.614;2023-06-26T09:45:18;99775.00;;;23.86;31.44
15880;BME280;61999;51.514;14.614;2023-06-26T09:47:47;99778.31;;;22.19;33.99
15880;BME280;61999;51.514;14.614;2023-06-26T09:50:22;99774.47;;;21.67;35.13
15880;BME280;61999;51.514;14.614;2023-06-26T09:52:53;99763.47;;;23.28;34.19
15880;BME280;61999;51.514;14.614;2023-06-26T09:55:21;99782.84;;;22.91;32.33
15880;BME280;61999;51.514;14.614;2023-06-26T09:57:51;99767.16;;;22.62;33.17
15880;BME280;61999;51.514;14.614;2023-06-26T10:00:20;99771.91;;;22.06;33.84
15880;BME280;61999;51.514;14.614;2023-06-26T10:02:48;99760.34;;;24.14;32.71
15880;BME280;61999;51.514;14.614;2023-06-26T10:05:16;99757.34;;;24.47;31.53
15880;BME280;61999;51.514;14.614;2023-06-26T10:07:45;99758.06;;;25.53;29.72
15880;BME280;61999;51.514;14.614;2023-06-26T10:10:17;99743.56;;;24.81;30.89
15880;BME280;61999;51.514;14.614;2023-06-26T10:12:49;99747.69;;;26.11;29.98
15880;BME280;61999;51.514;14.614;2023-06-26T10:15:21;99741.50;;;25.50;27.45
15880;BME280;61999;51.514;14.614;2023-06-26T10:17:54;99730.03;;;25.54;30.25
15880;BME280;61999;51.514;14.614;2023-06-26T10:20:25;99737.47;;;26.95;27.30
15880;BME280;61999;51.514;14.614;2023-06-26T10:22:57;99737.34;;;24.80;27.71
15880;BME280;61999;51.514;14.614;2023-06-26T10:25:31;99729.31;;;23.73;27.91
15880;BME280;61999;51.514;14.614;2023-06-26T10:28:01;99725.34;;;24.76;28.48
15880;BME280;61999;51.514;14.614;2023-06-26T10:30:34;99717.72;;;24.91;28.19
15880;BME280;61999;51.514;14.614;2023-06-26T10:33:05;99718.91;;;24.34;28.01
15880;BME280;61999;51.514;14.614;2023-06-26T10:35:42;99708.38;;;25.73;28.71
15880;BME280;61999;51.514;14.614;2023-06-26T10:38:11;99707.84;;;27.17;26.76
15880;BME280;61999;51.514;14.614;2023-06-26T10:40:43;99707.44;;;26.96;26.72
15880;BME280;61999;51.514;14.614;2023-06-26T10:43:13;99700.13;;;27.49;25.71
15880;BME280;61999;51.514;14.614;2023-06-26T10:45:46;99705.88;;;26.72;26.29
15880;BME280;61999;51.514;14.614;2023-06-26T10:48:19;99702.41;;;28.59;24.29
15880;BME280;61999;51.514;14.614;2023-06-26T10:50:48;99698.28;;;28.56;22.06
15880;BME280;61999;51.514;14.614;2023-06-26T10:53:23;99697.72;;;27.24;24.34
15880;BME280;61999;51.514;14.614;2023-06-26T10:56:00;99696.03;;;27.63;22.46
15880;BME280;61999;51.514;14.614;2023-06-26T10:58:34;99694.38;;;28.47;23.22
15880;BME280;61999;51.514;14.614;2023-06-26T11:01:24;99697.00;;;29.30;21.85
15880;BME280;61999;51.514;14.614;2023-06-26T11:04:06;99694.50;;;28.57;21.31
15880;BME280;61999;51.514;14.614;2023-06-26T11:06:35;99692.81;;;30.08;22.42
15880;BME280;61999;51.514;14.614;2023-06-26T11:09:11;99695.81;;;29.20;21.53
15880;BME280;61999;51.514;14.614;2023-06-26T11:12:00;99691.16;;;29.70;21.59
15880;BME280;61999;51.514;14.614;2023-06-26T11:14:35;99686.09;;;29.25;21.51
15880;BME280;61999;51.514;14.614;2023-06-26T11:17:04;99689.44;;;28.44;22.26
15880;BME280;61999;51.514;14.614;2023-06-26T11:19:32;99684.28;;;26.89;25.15
15880;BME280;61999;51.514;14.614;2023-06-26T11:22:04;99688.34;;;25.20;26.57
15880;BME280;61999;51.514;14.614;2023-06-26T11:24:32;99689.41;;;24.20;29.08
15880;BME280;61999;51.514;14.614;2023-06-26T11:27:03;99681.38;;;25.12;27.00
15880;BME280;61999;51.514;14.614;2023-06-26T11:29:32;99684.19;;;27.24;24.88
15880;BME280;61999;51.514;14.614;2023-06-26T11:32:03;99679.91;;;27.57;24.09
15880;BME280;61999;51.514;14.614;2023-06-26T11:34:33;99680.69;;;27.00;24.23
15880;BME280;61999;51.514;14.614;2023-06-26T11:37:02;99673.63;;;26.70;25.21
15880;BME280;61999;51.514;14.614;2023-06-26T11:39:30;99667.13;;;27.69;25.07
15880;BME280;61999;51.514;14.614;2023-06-26T11:41:59;99670.88;;;29.24;24.05
15880;BME280;61999;51.514;14.614;2023-06-26T11:44:32;99671.56;;;28.87;22.65
15880;BME280;61999;51.514;14.614;2023-06-26T11:47:07;99659.34;;;29.71;22.38
15880;BME280;61999;51.514;14.614;2023-06-26T11:49:35;99651.50;;;32.04;20.94
15880;BME280;61999;51.514;14.614;2023-06-26T11:52:03;99653.97;;;32.81;18.47
15880;BME280;61999;51.514;14.614;2023-06-26T11:54:31;99666.03;;;28.82;21.83
15880;BME280;61999;51.514;14.614;2023-06-26T11:56:59;99653.31;;;28.21;24.85
15880;BME280;61999;51.514;14.614;2023-06-26T11:59:37;99655.50;;;30.36;21.16
15880;BME280;61999;51.514;14.614;2023-06-26T12:02:07;99653.00;;;30.35;20.79
15880;BME280;61999;51.514;14.614;2023-06-26T12:04:38;99651.88;;;30.78;19.50
15880;BME280;61999;51.514;14.614;2023-06-26T12:07:09;99644.84;;;32.41;18.99
15880;BME280;61999;51.514;14.614;2023-06-26T12:09:39;99642.75;;;31.81;18.75
15880;BME280;61999;51.514;14.614;2023-06-26T12:12:10;99630.91;;;32.97;19.04
15880;BME280;61999;51.514;14.614;2023-06-26T12:14:40;99647.03;;;30.38;20.79
15880;BME280;61999;51.514;14.614;2023-06-26T12:17:11;99629.88;;;29.25;23.45
15880;BME280;61999;51.514;14.614;2023-06-26T12:19:44;99630.66;;;32.28;19.06
15880;BME280;61999;51.514;14.614;2023-06-26T12:22:15;99629.34;;;33.94;18.02
15880;BME280;61999;51.514;14.614;2023-06-26T12:24:45;99629.03;;;34.48;17.29
15880;BME280;61999;51.514;14.614;2023-06-26T12:27:16;99622.44;;;36.96;16.11
15880;BME280;61999;51.514;14.614;2023-06-26T12:29:52;99620.31;;;37.29;14.93
15880;BME280;61999;51.514;14.614;2023-06-26T12:32:23;99621.00;;;34.76;16.94
15880;BME280;61999;51.514;14.614;2023-06-26T12:34:51;99611.00;;;35.56;16.36
15880;BME280;61999;51.514;14.614;2023-06-26T12:37:20;99611.84;;;34.19;17.12
15880;BME280;61999;51.514;14.614;2023-06-26T12:39:50;99600.91;;;36.25;16.28
15880;BME280;61999;51.514;14.614;2023-06-26T12:42:20;99601.34;;;31.90;19.57
15880;BME280;61999;51.514;14.614;2023-06-26T12:44:50;99598.97;;;32.48;19.12
15880;BME280;61999;51.514;14.614;2023-06-26T12:47:25;99604.53;;;28.87;20.88
15880;BME280;61999;51.514;14.614;2023-06-26T12:49:54;99584.28;;;28.51;22.71
15880;BME280;61999;51.514;14.614;2023-06-26T12:52:22;99575.16;;;26.71;24.72
15880;BME280;61999;51.514;14.614;2023-06-26T12:54:53;99585.78;;;27.02;24.22
15880;BME280;61999;51.514;14.614;2023-06-26T12:57:21;99568.84;;;26.94;25.30
15880;BME280;61999;51.514;14.614;2023-06-26T12:59:51;99572.97;;;28.15;22.99
15880;BME280;61999;51.514;14.614;2023-06-26T13:02:19;99573.16;;;27.92;22.80